createdAt,value
2018-12-21T00:01:38.991Z,4.90
2018-12-21T00:04:06.518Z,4.90
2018-12-21T00:06:34.096Z,4.90
2018-12-21T00:09:01.680Z,5.00
2018-12-21T00:11:29.286Z,5.00
2018-12-21T00:13:56.843Z,5.10
2018-12-21T00:16:24.406Z,5.10
2018-12-21T00:18:52.010Z,5.20
2018-12-21T00:21:21.905Z,5.10
2018-12-21T00:23:49.325Z,5.10
2018-12-21T00:26:16.865Z,5.10
2018-12-21T00:28:44.469Z,5.10
2018-12-21T00:31:17.947Z,5.10
2018-12-21T00:33:51.338Z,5.10
2018-12-21T00:36:24.502Z,5.10
2018-12-21T00:38:57.793Z,5.00
2018-12-21T00:41:25.002Z,5.00
2018-12-21T00:43:54.469Z,5.10
2018-12-21T00:46:23.998Z,5.20
2018-12-21T00:48:51.645Z,5.20
2018-12-21T00:51:19.278Z,5.30
2018-12-21T00:53:46.851Z,5.30
2018-12-21T00:56:14.525Z,5.20
2018-12-21T00:58:42.095Z,5.40
2018-12-21T01:01:09.678Z,5.30
2018-12-21T01:03:37.452Z,5.20
2018-12-21T01:06:04.998Z,5.30
2018-12-21T01:08:32.586Z,5.30
2018-12-21T01:11:00.179Z,5.20
2018-12-21T01:13:27.714Z,5.20
2018-12-21T01:15:55.350Z,5.20
2018-12-21T01:18:23.417Z,5.30
2018-12-21T01:20:50.986Z,5.30
2018-12-21T01:23:18.560Z,5.40
2018-12-21T01:25:46.115Z,5.30
2018-12-21T01:28:13.664Z,5.30
2018-12-21T01:30:41.245Z,5.30
2018-12-21T01:33:08.930Z,5.30
2018-12-21T01:35:36.601Z,5.30
2018-12-21T01:38:04.173Z,5.20
2018-12-21T01:40:31.750Z,5.30
2018-12-21T01:42:59.326Z,5.20
2018-12-21T01:45:26.900Z,5.30
2018-12-21T01:47:54.469Z,5.30
2018-12-21T01:50:22.047Z,5.30
2018-12-21T01:52:49.611Z,5.40
2018-12-21T01:55:17.186Z,5.40
2018-12-21T01:57:44.743Z,5.50
2018-12-21T02:00:12.359Z,5.50
2018-12-21T02:02:39.907Z,5.50
2018-12-21T02:05:07.574Z,5.40
2018-12-21T02:07:35.180Z,5.40
2018-12-21T02:10:03.089Z,5.40
2018-12-21T02:12:30.682Z,5.50
2018-12-21T02:14:58.270Z,5.50
2018-12-21T02:17:25.850Z,5.60
2018-12-21T02:19:53.423Z,5.50
2018-12-21T02:22:20.998Z,5.50
2018-12-21T02:24:48.942Z,5.50
2018-12-21T02:27:16.488Z,5.60
2018-12-21T02:29:44.014Z,5.60
2018-12-21T02:32:11.687Z,5.60
2018-12-21T02:34:39.229Z,5.70
2018-12-21T02:37:06.842Z,5.70
2018-12-21T02:39:34.410Z,5.60
2018-12-21T02:42:01.958Z,5.60
2018-12-21T02:44:29.551Z,5.50
2018-12-21T02:46:57.131Z,5.60
2018-12-21T02:49:24.697Z,5.60
2018-12-21T02:51:52.247Z,5.60
2018-12-21T02:54:19.951Z,5.70
2018-12-21T02:56:47.514Z,5.60
2018-12-21T02:59:15.189Z,5.60
2018-12-21T03:01:42.779Z,5.60
2018-12-21T03:04:10.313Z,5.60
2018-12-21T03:06:38.017Z,5.60
2018-12-21T03:09:08.541Z,5.50
2018-12-21T03:11:36.125Z,5.50
2018-12-21T03:14:03.714Z,5.50
2018-12-21T03:16:31.370Z,5.60
2018-12-21T03:18:58.960Z,5.50
2018-12-21T03:21:26.523Z,5.40
2018-12-21T03:23:54.206Z,5.60
2018-12-21T03:26:21.765Z,5.60
2018-12-21T03:28:49.334Z,5.60
2018-12-21T03:31:17.015Z,5.60
2018-12-21T03:33:44.682Z,5.70
2018-12-21T03:36:12.207Z,5.60
2018-12-21T03:38:39.978Z,5.60
2018-12-21T03:41:07.607Z,5.70
2018-12-21T03:43:35.158Z,5.70
2018-12-21T03:46:02.759Z,5.80
2018-12-21T03:48:30.316Z,5.80
2018-12-21T03:50:57.860Z,5.80
2018-12-21T03:53:25.478Z,5.90
2018-12-21T03:55:53.007Z,5.80
2018-12-21T03:58:20.618Z,5.80
2018-12-21T04:00:48.293Z,5.70
2018-12-21T04:03:15.871Z,5.70
2018-12-21T04:05:43.534Z,5.70
2018-12-21T04:08:11.123Z,5.80
2018-12-21T04:10:38.680Z,5.90
2018-12-21T04:13:06.358Z,5.80
2018-12-21T04:15:34.070Z,5.80
2018-12-21T04:18:01.640Z,5.80
2018-12-21T04:20:29.257Z,5.70
2018-12-21T04:22:56.851Z,5.60
2018-12-21T04:25:24.378Z,5.70
2018-12-21T04:27:51.973Z,5.70
2018-12-21T04:30:19.498Z,5.70
2018-12-21T04:32:47.039Z,5.50
2018-12-21T04:35:14.715Z,5.50
2018-12-21T04:37:42.287Z,5.50
2018-12-21T04:40:09.815Z,5.50
2018-12-21T04:42:37.365Z,5.50
2018-12-21T04:45:05.922Z,5.60
2018-12-21T04:47:33.498Z,5.50
2018-12-21T04:50:01.167Z,5.60
2018-12-21T04:52:28.747Z,5.60
2018-12-21T04:54:56.316Z,5.50
2018-12-21T04:57:23.842Z,5.60
2018-12-21T04:59:51.462Z,5.60
2018-12-21T05:02:19.092Z,5.60
2018-12-21T05:04:46.706Z,5.60
2018-12-21T05:07:14.277Z,5.60
2018-12-21T05:09:41.830Z,5.50
2018-12-21T05:12:09.421Z,5.60
2018-12-21T05:14:37.019Z,5.60
2018-12-21T05:17:04.586Z,5.60
2018-12-21T05:19:32.134Z,5.60
2018-12-21T05:21:59.658Z,5.50
2018-12-21T05:24:27.282Z,5.70
2018-12-21T05:26:54.824Z,5.60
2018-12-21T05:29:22.369Z,5.60
2018-12-21T05:31:49.903Z,5.80
2018-12-21T05:34:17.541Z,5.70
2018-12-21T05:36:45.146Z,5.80
2018-12-21T05:39:12.718Z,5.70
2018-12-21T05:41:40.251Z,5.60
2018-12-21T05:44:07.857Z,5.70
2018-12-21T05:46:35.381Z,5.70
2018-12-21T05:49:03.006Z,5.80
2018-12-21T05:51:30.595Z,5.80
2018-12-21T05:53:58.149Z,5.60
2018-12-21T05:56:25.709Z,5.60
2018-12-21T05:58:53.297Z,5.60
2018-12-21T06:01:20.867Z,5.50
2018-12-21T06:03:48.410Z,5.50
2018-12-21T06:06:15.934Z,5.60
2018-12-21T06:08:43.538Z,5.70
2018-12-21T06:11:11.070Z,5.70
2018-12-21T06:13:38.627Z,5.70
2018-12-21T06:16:06.197Z,5.70
2018-12-21T06:18:33.779Z,5.70
2018-12-21T06:21:01.347Z,5.70
2018-12-21T06:23:28.917Z,5.70
2018-12-21T06:25:56.493Z,5.60
2018-12-21T06:28:24.042Z,5.60
2018-12-21T06:30:51.569Z,5.60
2018-12-21T06:33:19.130Z,5.60
2018-12-21T06:35:46.778Z,5.70
2018-12-21T06:38:14.423Z,5.70
2018-12-21T06:40:41.971Z,5.60
2018-12-21T06:43:09.507Z,5.60
2018-12-21T06:45:37.049Z,5.60
2018-12-21T06:48:04.574Z,5.60
2018-12-21T06:50:32.118Z,5.60
2018-12-21T06:52:59.646Z,5.50
2018-12-21T06:55:27.193Z,5.40
2018-12-21T06:57:54.722Z,5.50
2018-12-21T07:00:22.355Z,5.50
2018-12-21T07:02:49.919Z,5.50
2018-12-21T07:05:17.564Z,5.60
2018-12-21T07:07:45.098Z,5.60
2018-12-21T07:10:12.652Z,5.60
2018-12-21T07:12:40.181Z,5.60
2018-12-21T07:15:07.778Z,5.60
2018-12-21T07:17:35.347Z,5.60
2018-12-21T07:20:02.930Z,5.60
2018-12-21T07:22:30.461Z,5.70
2018-12-21T07:24:58.142Z,5.70
2018-12-21T07:27:25.718Z,5.70
2018-12-21T07:29:53.328Z,5.70
2018-12-21T07:32:20.894Z,5.70
2018-12-21T07:34:48.438Z,5.70
2018-12-21T07:37:15.962Z,5.70
2018-12-21T07:39:43.501Z,5.70
2018-12-21T07:42:11.026Z,5.70
2018-12-21T07:44:38.569Z,5.80
2018-12-21T07:47:06.103Z,5.80
2018-12-21T07:49:33.654Z,5.80
2018-12-21T07:52:01.232Z,5.90
2018-12-21T07:54:28.847Z,5.90
2018-12-21T07:56:56.409Z,5.90
2018-12-21T07:59:23.966Z,5.90
2018-12-21T08:01:51.493Z,5.90
2018-12-21T08:04:19.142Z,6.00
2018-12-21T08:06:46.717Z,6.10
2018-12-21T08:09:14.392Z,6.10
2018-12-21T08:11:41.925Z,6.00
2018-12-21T08:14:09.466Z,6.10
2018-12-21T08:16:36.989Z,6.10
2018-12-21T08:19:04.533Z,6.10
2018-12-21T08:21:32.067Z,6.10
2018-12-21T08:23:59.590Z,6.10
2018-12-21T08:26:27.141Z,6.00
2018-12-21T08:28:54.670Z,6.00
2018-12-21T08:31:22.236Z,6.20
2018-12-21T08:33:49.766Z,6.20
2018-12-21T08:36:17.453Z,6.20
2018-12-21T08:38:45.039Z,6.20
2018-12-21T08:41:12.582Z,6.20
2018-12-21T08:43:40.115Z,6.20
2018-12-21T08:46:07.666Z,6.30
2018-12-21T08:48:35.202Z,6.30
2018-12-21T08:51:02.752Z,6.30
2018-12-21T08:53:30.324Z,6.30
2018-12-21T08:55:57.914Z,6.30
2018-12-21T08:58:25.443Z,6.40
2018-12-21T09:00:53.030Z,6.30
2018-12-21T09:03:20.553Z,6.30
2018-12-21T09:05:48.103Z,6.20
2018-12-21T09:08:15.652Z,6.20
2018-12-21T09:10:43.326Z,6.30
2018-12-21T09:13:10.849Z,6.20
2018-12-21T09:15:38.569Z,6.20
2018-12-21T09:18:06.150Z,6.20
2018-12-21T09:20:33.823Z,6.10
2018-12-21T09:23:01.389Z,6.20
2018-12-21T09:25:28.966Z,6.10
2018-12-21T09:27:56.537Z,6.00
2018-12-21T09:30:24.214Z,6.10
2018-12-21T09:32:51.744Z,6.10
2018-12-21T09:35:19.356Z,6.10
2018-12-21T09:37:47.039Z,6.20
2018-12-21T09:40:14.706Z,6.10
2018-12-21T09:42:42.274Z,6.20
2018-12-21T09:45:09.955Z,6.20
2018-12-21T09:47:37.525Z,6.20
2018-12-21T09:50:06.351Z,6.30
2018-12-21T09:52:33.878Z,6.40
2018-12-21T09:55:01.434Z,6.40
2018-12-21T09:57:28.958Z,6.40
2018-12-21T09:59:56.511Z,6.30
2018-12-21T10:02:24.084Z,6.30
2018-12-21T10:04:52.606Z,6.30
2018-12-21T10:07:27.397Z,6.40
2018-12-21T10:09:49.765Z,6.50
2018-12-21T10:12:17.320Z,6.50
2018-12-21T10:14:44.922Z,6.40
2018-12-21T10:17:12.487Z,6.30
2018-12-21T10:19:40.019Z,6.20
2018-12-21T10:22:07.570Z,6.20
2018-12-21T10:24:35.208Z,6.20
2018-12-21T10:27:02.754Z,6.10
2018-12-21T10:29:30.353Z,6.10
2018-12-21T10:31:57.906Z,6.00
2018-12-21T10:34:25.448Z,6.00
2018-12-21T10:36:52.990Z,6.00
2018-12-21T10:39:20.519Z,6.00
2018-12-21T10:41:48.075Z,5.90
2018-12-21T10:44:15.607Z,6.00
2018-12-21T10:46:43.159Z,6.00
2018-12-21T10:49:10.726Z,5.90
2018-12-21T10:51:38.327Z,5.90
2018-12-21T10:54:05.893Z,5.90
2018-12-21T10:56:33.440Z,5.90
2018-12-21T10:59:00.969Z,6.00
2018-12-21T11:01:28.514Z,6.10
2018-12-21T11:03:56.166Z,6.00
2018-12-21T11:06:23.753Z,5.90
2018-12-21T11:08:52.102Z,6.00
2018-12-21T11:11:19.690Z,6.00
2018-12-21T11:13:47.214Z,6.00
2018-12-21T11:16:14.753Z,6.00
2018-12-21T11:18:42.274Z,6.10
2018-12-21T11:21:09.826Z,6.10
2018-12-21T11:23:37.353Z,6.10
2018-12-21T11:26:04.977Z,6.00
2018-12-21T11:28:32.543Z,6.10
2018-12-21T11:31:00.126Z,6.00
2018-12-21T11:33:27.653Z,6.00
2018-12-21T11:35:55.194Z,5.90
2018-12-21T11:38:22.723Z,5.90
2018-12-21T11:40:50.309Z,6.00
2018-12-21T11:43:17.874Z,6.10
2018-12-21T11:45:45.434Z,6.00
2018-12-21T11:48:12.967Z,6.00
2018-12-21T11:50:40.518Z,6.10
2018-12-21T11:53:08.069Z,6.10
2018-12-21T11:55:35.594Z,6.10
2018-12-21T11:58:03.185Z,6.10
2018-12-21T12:00:30.715Z,6.10
2018-12-21T12:02:58.268Z,6.10
2018-12-21T12:05:25.793Z,6.10
2018-12-21T12:07:53.342Z,6.10
2018-12-21T12:10:20.867Z,6.10
2018-12-21T12:12:48.415Z,6.00
2018-12-21T12:15:15.946Z,6.00
2018-12-21T12:17:43.490Z,6.00
2018-12-21T12:20:11.055Z,6.00
2018-12-21T12:22:38.597Z,6.00
2018-12-21T12:25:06.214Z,6.00
2018-12-21T12:27:33.757Z,6.00
2018-12-21T12:30:01.288Z,6.00
2018-12-21T12:32:28.838Z,6.00
2018-12-21T12:34:56.378Z,6.00
2018-12-21T12:37:23.926Z,6.10
2018-12-21T12:39:51.450Z,6.20
2018-12-21T12:42:19.036Z,6.20
2018-12-21T12:44:46.564Z,6.20
2018-12-21T12:47:14.150Z,6.30
2018-12-21T12:49:41.721Z,6.20
2018-12-21T12:52:09.265Z,6.30
2018-12-21T12:54:36.795Z,6.40
2018-12-21T12:57:04.421Z,6.30
2018-12-21T12:59:31.990Z,6.30
2018-12-21T13:01:59.570Z,6.20
2018-12-21T13:04:27.104Z,6.20
2018-12-21T13:06:54.649Z,6.20
2018-12-21T13:09:22.174Z,6.20
2018-12-21T13:11:49.718Z,6.20
2018-12-21T13:14:17.243Z,6.30
2018-12-21T13:16:44.795Z,6.30
2018-12-21T13:19:12.318Z,6.20
2018-12-21T13:21:39.902Z,6.30
2018-12-21T13:24:07.515Z,6.20
2018-12-21T13:26:35.082Z,6.20
2018-12-21T13:29:02.601Z,6.20
2018-12-21T13:31:30.148Z,6.10
2018-12-21T13:33:57.678Z,6.10
2018-12-21T13:36:25.205Z,6.20
2018-12-21T13:38:52.751Z,6.20
2018-12-21T13:41:20.278Z,6.20
2018-12-21T13:43:47.818Z,6.20
2018-12-21T13:46:15.350Z,6.30
2018-12-21T13:48:43.062Z,6.40
2018-12-21T13:51:10.585Z,6.30
2018-12-21T13:53:38.135Z,6.30
2018-12-21T13:56:05.662Z,6.40
2018-12-21T13:58:33.207Z,6.50
2018-12-21T14:01:00.732Z,6.50
2018-12-21T14:03:28.274Z,6.60
2018-12-21T14:05:55.797Z,6.60
2018-12-21T14:08:23.342Z,6.60
2018-12-21T14:10:50.867Z,6.70
2018-12-21T14:13:18.415Z,6.70
2018-12-21T14:15:45.978Z,6.80
2018-12-21T14:18:13.537Z,6.80
2018-12-21T14:20:41.065Z,6.80
2018-12-21T14:23:08.613Z,6.90
2018-12-21T14:25:36.694Z,7.00
2018-12-21T14:28:04.308Z,7.10
2018-12-21T14:30:31.838Z,7.10
2018-12-21T14:32:59.434Z,7.20
2018-12-21T14:35:26.959Z,7.10
2018-12-21T14:37:54.503Z,7.20
2018-12-21T14:40:22.041Z,7.20
2018-12-21T14:42:49.586Z,7.20
2018-12-21T14:45:17.109Z,7.20
2018-12-21T14:47:44.654Z,7.20
2018-12-21T14:50:12.302Z,7.30
2018-12-21T14:52:39.905Z,7.30
2018-12-21T14:55:07.918Z,7.30
2018-12-21T14:57:35.527Z,7.30
2018-12-21T15:00:06.478Z,7.20
2018-12-21T15:02:34.046Z,7.20
2018-12-21T15:05:01.626Z,7.30
2018-12-21T15:07:29.202Z,7.40
2018-12-21T15:09:56.871Z,7.60
2018-12-21T15:12:24.442Z,7.50
2018-12-21T15:14:52.013Z,7.50
2018-12-21T15:17:19.660Z,7.50
2018-12-21T15:19:47.285Z,7.50
2018-12-21T15:22:14.830Z,7.50
2018-12-21T15:24:42.383Z,7.60
2018-12-21T15:27:09.922Z,7.60
2018-12-21T15:29:37.469Z,7.70
2018-12-21T15:32:05.057Z,7.70
2018-12-21T15:34:32.598Z,7.70
2018-12-21T15:37:00.131Z,7.70
2018-12-21T15:39:27.682Z,7.80
2018-12-21T15:41:55.217Z,7.80
2018-12-21T15:44:22.771Z,7.80
2018-12-21T15:46:50.304Z,7.80
2018-12-21T15:49:17.889Z,7.80
2018-12-21T15:51:45.438Z,7.90
2018-12-21T15:54:13.083Z,8.00
2018-12-21T15:56:40.655Z,8.10
2018-12-21T15:59:08.259Z,8.20
2018-12-21T16:01:36.959Z,8.20
2018-12-21T16:04:05.010Z,8.10
2018-12-21T16:06:32.975Z,8.20
2018-12-21T16:09:00.812Z,8.30
2018-12-21T16:11:28.399Z,8.30
2018-12-21T16:13:56.006Z,8.30
2018-12-21T16:16:23.602Z,8.40
2018-12-21T16:18:51.214Z,8.50
2018-12-21T16:21:18.803Z,8.50
2018-12-21T16:23:46.427Z,8.40
2018-12-21T16:26:15.120Z,8.40
2018-12-21T16:28:42.770Z,8.30
2018-12-21T16:31:10.345Z,8.30
2018-12-21T16:33:37.953Z,8.30
2018-12-21T16:36:05.539Z,8.30
2018-12-21T16:38:33.156Z,8.30
2018-12-21T16:41:00.753Z,8.30
2018-12-21T16:43:28.360Z,8.30
2018-12-21T16:45:55.947Z,8.20
2018-12-21T16:48:23.571Z,8.20
2018-12-21T16:50:51.163Z,8.20
2018-12-21T16:53:18.771Z,8.20
2018-12-21T16:55:46.351Z,8.20
2018-12-21T16:58:13.980Z,8.20
2018-12-21T17:00:41.564Z,8.30
2018-12-21T17:03:15.618Z,8.30
2018-12-21T17:05:38.789Z,8.30
2018-12-21T17:08:06.532Z,8.30
2018-12-21T17:10:34.429Z,8.30
2018-12-21T17:13:02.003Z,8.30
2018-12-21T17:15:29.616Z,8.40
2018-12-21T17:17:57.292Z,8.40
2018-12-21T17:20:24.850Z,8.40
2018-12-21T17:22:52.389Z,8.40
2018-12-21T17:25:19.942Z,8.40
2018-12-21T17:27:47.472Z,8.40
2018-12-21T17:30:15.131Z,8.40
2018-12-21T17:32:42.662Z,8.40
2018-12-21T17:35:10.302Z,8.40
2018-12-21T17:37:37.869Z,8.40
2018-12-21T17:40:07.002Z,8.50
2018-12-21T17:42:34.578Z,8.50
2018-12-21T17:45:02.165Z,8.40
2018-12-21T17:47:29.694Z,8.40
2018-12-21T17:49:57.291Z,8.40
2018-12-21T17:52:24.818Z,8.50
2018-12-21T17:54:52.368Z,8.60
2018-12-21T17:57:19.982Z,8.60
2018-12-21T17:59:47.530Z,8.60
2018-12-21T18:02:15.056Z,8.70
2018-12-21T18:04:42.602Z,8.70
2018-12-21T18:07:10.130Z,8.70
2018-12-21T18:09:37.678Z,8.70
2018-12-21T18:12:05.249Z,8.70
2018-12-21T18:14:32.790Z,8.70
2018-12-21T18:17:00.697Z,8.80
2018-12-21T18:19:28.339Z,8.80
2018-12-21T18:21:55.945Z,8.80
2018-12-21T18:24:23.529Z,8.80
2018-12-21T18:26:51.106Z,8.80
2018-12-21T18:29:18.654Z,8.80
2018-12-21T18:31:49.865Z,8.90
2018-12-21T18:34:20.896Z,8.80
2018-12-21T18:36:48.419Z,8.90
2018-12-21T18:39:15.965Z,8.90
2018-12-21T18:41:43.523Z,8.90
2018-12-21T18:44:11.069Z,8.90
2018-12-21T18:46:38.590Z,9.10
2018-12-21T18:49:06.146Z,9.20
2018-12-21T18:51:33.680Z,9.20
2018-12-21T18:54:01.221Z,9.20
2018-12-21T18:56:29.025Z,9.30
2018-12-21T18:58:56.547Z,9.30
2018-12-21T19:01:24.090Z,9.30
2018-12-21T19:03:51.618Z,9.40
2018-12-21T19:06:19.162Z,9.40
2018-12-21T19:08:47.322Z,9.40
2018-12-21T19:11:14.866Z,9.50
2018-12-21T19:13:42.395Z,9.50
2018-12-21T19:16:09.938Z,9.50
2018-12-21T19:18:37.621Z,9.50
2018-12-21T19:21:05.168Z,9.50
2018-12-21T19:23:32.698Z,9.60
2018-12-21T19:26:00.241Z,9.60
2018-12-21T19:28:27.766Z,9.60
2018-12-21T19:30:55.314Z,9.60
2018-12-21T19:33:22.953Z,9.70
2018-12-21T19:35:50.497Z,9.70
2018-12-21T19:38:18.146Z,9.70
2018-12-21T19:40:45.695Z,9.60
2018-12-21T19:43:13.235Z,9.50
2018-12-21T19:45:40.790Z,9.50
2018-12-21T19:48:08.319Z,9.60
2018-12-21T19:50:35.867Z,9.60
2018-12-21T19:53:03.399Z,9.60
2018-12-21T19:55:35.474Z,9.50
2018-12-21T19:58:03.038Z,9.50
2018-12-21T20:00:30.630Z,9.50
2018-12-21T20:02:58.177Z,9.40
2018-12-21T20:05:25.721Z,9.40
2018-12-21T20:07:53.253Z,9.50
2018-12-21T20:10:20.848Z,9.40
2018-12-21T20:12:48.398Z,9.40
2018-12-21T20:15:15.922Z,9.30
2018-12-21T20:17:43.477Z,9.20
2018-12-21T20:20:11.085Z,9.20
2018-12-21T20:22:38.723Z,9.20
2018-12-21T20:25:07.825Z,9.20
2018-12-21T20:27:35.375Z,9.10
2018-12-21T20:30:03.387Z,9.20
2018-12-21T20:32:30.928Z,9.20
2018-12-21T20:34:58.459Z,9.20
2018-12-21T20:37:26.006Z,9.20
2018-12-21T20:39:53.547Z,9.20
2018-12-21T20:42:21.102Z,9.30
2018-12-21T20:44:48.626Z,9.30
2018-12-21T20:47:16.650Z,9.30
2018-12-21T20:49:44.183Z,9.40
2018-12-21T20:52:11.730Z,9.40
2018-12-21T20:54:39.262Z,9.40
2018-12-21T20:57:06.987Z,9.40
2018-12-21T20:59:34.509Z,9.50
2018-12-21T21:02:02.149Z,9.60
2018-12-21T21:04:29.722Z,9.60
2018-12-21T21:06:57.279Z,9.70
2018-12-21T21:09:24.806Z,9.80
2018-12-21T21:11:52.362Z,9.80
2018-12-21T21:14:19.973Z,9.70
2018-12-21T21:16:47.518Z,9.70
2018-12-21T21:19:15.047Z,9.70
2018-12-21T21:21:42.607Z,9.70
2018-12-21T21:24:10.171Z,9.70
2018-12-21T21:26:37.715Z,9.70
2018-12-21T21:29:05.242Z,9.60
2018-12-21T21:31:32.796Z,9.60
2018-12-21T21:34:00.317Z,9.50
2018-12-21T21:36:27.859Z,9.50
2018-12-21T21:38:55.386Z,9.50
2018-12-21T21:41:22.980Z,9.40
2018-12-21T21:43:50.510Z,9.40
2018-12-21T21:46:18.073Z,9.40
2018-12-21T21:48:45.602Z,9.40
2018-12-21T21:51:13.166Z,9.30
2018-12-21T21:53:40.709Z,9.40
2018-12-21T21:56:08.239Z,9.40
2018-12-21T21:58:35.793Z,9.30
2018-12-21T22:01:03.358Z,9.30
2018-12-21T22:03:30.911Z,9.40
2018-12-21T22:05:58.438Z,9.50
2018-12-21T22:08:25.986Z,9.40
2018-12-21T22:11:01.518Z,9.50
2018-12-21T22:13:23.074Z,9.50
2018-12-21T22:15:50.598Z,9.40
2018-12-21T22:18:18.137Z,9.30
2018-12-21T22:20:45.666Z,9.30
2018-12-21T22:23:13.206Z,9.20
2018-12-21T22:25:40.778Z,9.10
2018-12-21T22:28:08.322Z,9.00
2018-12-21T22:30:35.855Z,9.00
2018-12-21T22:33:03.450Z,8.90
2018-12-21T22:35:30.984Z,9.00
2018-12-21T22:37:58.524Z,9.00
2018-12-21T22:40:26.050Z,9.00
2018-12-21T22:42:53.723Z,9.10
2018-12-21T22:45:21.298Z,9.10
2018-12-21T22:47:48.843Z,9.10
2018-12-21T22:50:16.410Z,9.10
2018-12-21T22:52:43.958Z,9.10
2018-12-21T22:55:11.489Z,9.00
2018-12-21T22:57:39.039Z,9.00
2018-12-21T23:00:10.490Z,9.00
2018-12-21T23:02:38.033Z,9.10
2018-12-21T23:05:05.609Z,9.10
2018-12-21T23:07:33.158Z,9.00
2018-12-21T23:10:00.732Z,9.00
2018-12-21T23:12:28.279Z,9.00
2018-12-21T23:14:55.802Z,9.00
2018-12-21T23:17:23.349Z,8.90
2018-12-21T23:19:50.882Z,8.80
2018-12-21T23:22:18.470Z,8.70
2018-12-21T23:24:45.998Z,8.60
2018-12-21T23:27:13.546Z,8.60
2018-12-21T23:29:41.074Z,8.50
2018-12-21T23:32:08.627Z,8.50
2018-12-21T23:34:36.158Z,8.40
2018-12-21T23:37:03.725Z,8.40
2018-12-21T23:39:31.268Z,8.40
2018-12-21T23:41:58.799Z,8.40
2018-12-21T23:44:26.342Z,8.40
2018-12-21T23:46:53.870Z,8.50
2018-12-21T23:49:21.431Z,8.50
2018-12-21T23:51:49.066Z,8.50
2018-12-21T23:54:16.961Z,8.50
2018-12-21T23:56:44.481Z,8.50
2018-12-21T23:59:12.021Z,8.50
